Des Lacs, North Dakota
Current Conditions -  °F | °C
As of 8:54 PM on Friday 24 Oct 2014 (Local Time) from KMOT Reporting Station
Clear Clear  
Wind Chill: 53°   Ceiling: Unl
Heat Index: 53°   Visibility: 10mi
Dew Point: 28°   Wind: 14mph
Humidity: 38%   Direction: 250°WSW
Pressure: 29.95"   Gusts: NA
Location:  48.26°N, 101.56°W
Report Text: KMOT 250154Z AUTO 25012KT 10SM CLR 12/M02 A2995 RMK AO2 SLP147 T01171022
Loading
Personal Weather Stations






























Interactive Weather Map
Tropical Storm Tracking
New forecast layout! Learn more

10-Day Weather Forecast

Advertisements
Track Severe Weather on mobile